Time;durP1;ratioP1;P1;durP2;ratioP2;P2;SDS_P1;SDS_P2;PMS_P1;PMS_P2;Temp;Humidity;BMP_temperature;BMP_pressure;BME280_temperature;BME280_humidity;BME280_pressure;Samples;Min_cycle;Max_cycle;Signal;HPM_P1;HPM_P2
2022/06/23 00:00:30;;;;;;;2.27;2.17;;;13.60;81.40;;;;;;5075013;28;20807;-84
2022/06/23 00:02:57;;;;;;;4.97;2.60;;;13.60;81.00;;;;;;5076108;28;20187;-85
2022/06/23 00:05:25;;;;;;;5.47;2.97;;;13.50;81.80;;;;;;5076123;28;20172;-84
2022/06/23 00:07:55;;;;;;;3.37;3.07;;;13.40;83.50;;;;;;5075881;28;20167;-84
2022/06/23 00:10:26;;;;;;;2.90;2.70;;;13.40;84.10;;;;;;5075906;28;20766;-85
2022/06/23 00:12:53;;;;;;;2.90;2.70;;;13.30;84.50;;;;;;5075916;28;20184;-84
2022/06/23 00:15:35;;;;;;;3.40;2.80;;;13.20;84.80;;;;;;5075798;28;20188;-84
2022/06/23 00:18:05;;;;;;;3.40;3.10;;;13.00;85.30;;;;;;5076149;28;20166;-85
2022/06/23 00:20:47;;;;;;;3.47;3.17;;;12.80;85.80;;;;;;5075918;28;20199;-84
2022/06/23 00:23:24;;;;;;;5.50;2.83;;;12.80;86.30;;;;;;5075731;28;20195;-85
2022/06/23 00:26:17;;;;;;;3.13;2.80;;;12.70;86.10;;;;;;5075730;28;20161;-85
2022/06/23 00:29:01;;;;;;;3.30;2.33;;;12.80;86.30;;;;;;5075654;28;20160;-84
2022/06/23 00:31:34;;;;;;;2.53;2.33;;;12.90;85.90;;;;;;5075545;28;20199;-85
2022/06/23 00:34:03;;;;;;;2.70;2.50;;;12.90;85.40;;;;;;5075816;28;20626;-85
2022/06/23 00:36:40;;;;;;;2.63;2.43;;;13.00;85.00;;;;;;5075605;28;20176;-85
2022/06/23 00:39:31;;;;;;;2.83;2.63;;;12.90;84.60;;;;;;5075551;28;20182;-86
2022/06/23 00:41:57;;;;;;;5.23;2.73;;;13.00;84.10;;;;;;5074367;28;20704;-85
2022/06/23 00:44:35;;;;;;;2.67;2.47;;;12.90;83.70;;;;;;5075299;28;20168;-85
2022/06/23 00:47:06;;;;;;;4.80;2.50;;;12.90;83.30;;;;;;5075224;28;20160;-84
2022/06/23 00:49:46;;;;;;;3.33;3.03;;;12.90;83.00;;;;;;5075080;28;20156;-84
2022/06/23 00:52:38;;;;;;;3.00;2.70;;;12.80;82.90;;;;;;5075279;28;20159;-85
2022/06/23 00:55:15;;;;;;;3.77;3.47;;;12.80;84.10;;;;;;5074420;28;20183;-85
2022/06/23 00:57:58;;;;;;;2.70;2.50;;;12.80;84.70;;;;;;5075060;28;20221;-85
2022/06/23 01:00:31;;;;;;;3.33;2.80;;;12.70;84.90;;;;;;5075204;28;20198;-84
2022/06/23 01:03:21;;;;;;;2.90;2.57;;;12.80;84.80;;;;;;5074879;28;20249;-84
2022/06/23 01:05:59;;;;;;;3.80;2.97;;;12.70;84.30;;;;;;5075267;28;20242;-85
2022/06/23 01:08:28;;;;;;;2.87;2.67;;;12.70;84.70;;;;;;5075179;28;20167;-86
2022/06/23 01:11:10;;;;;;;3.20;2.70;;;12.70;84.80;;;;;;5073737;28;20569;-85
2022/06/23 01:13:44;;;;;;;3.60;2.80;;;12.80;84.60;;;;;;5075141;28;20168;-87
2022/06/23 01:16:14;;;;;;;2.60;2.33;;;12.70;84.40;;;;;;5075763;28;20174;-85
2022/06/23 01:18:48;;;;;;;2.83;2.63;;;12.70;84.00;;;;;;5074804;28;20184;-86
2022/06/23 01:21:20;;;;;;;4.50;3.20;;;12.60;83.70;;;;;;5074497;28;20623;-86
2022/06/23 01:24:02;;;;;;;3.53;3.20;;;12.50;85.30;;;;;;5074901;28;20160;-85
2022/06/23 01:26:35;;;;;;;3.83;3.43;;;12.40;86.20;;;;;;5074617;28;20160;-85
2022/06/23 01:29:31;;;;;;;3.73;3.43;;;12.30;86.80;;;;;;5074528;28;20164;-85
2022/06/23 01:32:07;;;;;;;3.83;3.53;;;12.30;87.00;;;;;;5074706;28;20194;-85
2022/06/23 01:34:57;;;;;;;3.90;3.60;;;12.30;87.10;;;;;;5074603;28;20586;-86
2022/06/23 01:37:44;;;;;;;4.73;4.33;;;12.30;87.50;;;;;;5073033;28;20634;-85
2022/06/23 01:40:27;;;;;;;4.70;4.13;;;12.30;88.00;;;;;;5074400;28;20285;-86
2022/06/23 01:43:02;;;;;;;7.13;5.10;;;12.30;88.20;;;;;;5074543;28;20228;-86
2022/06/23 01:45:37;;;;;;;4.03;3.40;;;12.40;88.20;;;;;;5074639;28;20614;-86
2022/06/23 01:48:52;;;;;;;4.43;4.03;;;12.30;88.00;;;;;;5074175;28;20160;-86
2022/06/23 01:51:45;;;;;;;4.43;3.93;;;12.30;87.80;;;;;;5074310;28;20195;-86
2022/06/23 01:54:21;;;;;;;4.47;4.03;;;12.20;87.60;;;;;;5073659;28;20266;-86
2022/06/23 01:56:53;;;;;;;5.50;4.50;;;12.30;87.90;;;;;;5073896;28;20183;-86
2022/06/23 01:59:26;;;;;;;5.23;4.73;;;12.30;87.90;;;;;;5072785;28;20618;-86
2022/06/23 02:02:01;;;;;;;4.20;3.90;;;12.30;87.90;;;;;;5073844;28;20191;-86
2022/06/23 02:04:32;;;;;;;3.67;3.37;;;12.20;88.10;;;;;;5073942;28;20156;-86
2022/06/23 02:07:09;;;;;;;3.70;3.40;;;12.00;88.10;;;;;;5073895;28;20164;-86
2022/06/23 02:09:43;;;;;;;4.00;3.70;;;11.80;88.50;;;;;;5074146;28;20163;-87
2022/06/23 02:12:21;;;;;;;4.57;4.20;;;11.70;88.80;;;;;;5073824;28;20164;-86
2022/06/23 02:14:56;;;;;;;4.13;3.83;;;11.60;89.00;;;;;;5073861;28;20250;-86
2022/06/23 02:17:39;;;;;;;5.80;5.17;;;11.60;89.30;;;;;;5073698;28;20164;-86
2022/06/23 02:20:26;;;;;;;7.47;5.40;;;11.50;89.50;;;;;;5073945;28;20191;-86
2022/06/23 02:23:07;;;;;;;11.03;5.67;;;11.50;89.70;;;;;;5073560;28;20240;-87
2022/06/23 02:25:38;;;;;;;4.80;4.40;;;11.50;89.90;;;;;;5073685;28;20198;-86
2022/06/23 02:28:13;;;;;;;4.33;3.93;;;11.50;89.90;;;;;;5073548;28;20163;-86
2022/06/23 02:30:45;;;;;;;5.00;4.03;;;11.50;89.70;;;;;;5073451;28;20546;-86
2022/06/23 02:33:23;;;;;;;3.80;3.50;;;11.60;89.70;;;;;;5073624;28;20664;-86
2022/06/23 02:35:57;;;;;;;4.00;3.70;;;11.70;89.60;;;;;;5074004;28;20688;-86
2022/06/23 02:38:25;;;;;;;4.70;4.20;;;11.70;89.30;;;;;;5073758;28;20191;-86
2022/06/23 02:40:56;;;;;;;6.70;4.40;;;11.70;89.10;;;;;;5073254;28;20712;-86
2022/06/23 02:43:36;;;;;;;5.63;3.57;;;11.70;88.90;;;;;;5073413;28;20156;-86
2022/06/23 02:46:38;;;;;;;5.40;3.00;;;11.60;89.20;;;;;;5073353;28;20160;-85
2022/06/23 02:49:16;;;;;;;3.33;3.03;;;11.40;89.50;;;;;;5073564;28;20727;-86
2022/06/23 02:52:00;;;;;;;4.70;4.30;;;11.30;89.90;;;;;;5073172;28;20218;-87
2022/06/23 02:54:50;;;;;;;5.77;5.27;;;11.30;90.20;;;;;;5073357;28;20207;-86
2022/06/23 02:57:41;;;;;;;6.93;6.30;;;11.20;90.50;;;;;;5073121;28;20245;-86
2022/06/23 03:00:30;;;;;;;7.57;6.63;;;11.20;90.90;;;;;;5072988;28;20563;-86
2022/06/23 03:03:13;;;;;;;9.43;7.20;;;11.20;91.10;;;;;;5073188;28;20202;-86
2022/06/23 03:05:58;;;;;;;28.30;8.27;;;11.30;91.30;;;;;;5073323;28;20682;-86
2022/06/23 03:08:36;;;;;;;132.03;10.23;;;11.20;91.30;;;;;;5073254;28;20568;-86
2022/06/23 03:14:23;;;;;;;21.73;7.17;;;10.90;91.60;;;;;;5073128;28;20686;-86
2022/06/23 03:16:55;;;;;;;16.23;8.30;;;10.90;91.80;;;;;;5072882;28;20182;-86
2022/06/23 03:19:29;;;;;;;7.60;6.90;;;10.80;91.90;;;;;;5073239;28;20183;-86
2022/06/23 03:22:11;;;;;;;6.97;5.50;;;11.00;92.10;;;;;;5073218;28;20192;-86
2022/06/23 03:25:03;;;;;;;5.70;5.13;;;11.20;92.10;;;;;;5073060;28;20183;-86
2022/06/23 03:27:32;;;;;;;5.43;4.37;;;11.40;92.10;;;;;;5071719;28;20222;-86
2022/06/23 03:30:23;;;;;;;4.27;3.80;;;11.50;92.00;;;;;;5072751;28;20192;-86
2022/06/23 03:33:06;;;;;;;3.83;3.53;;;11.60;91.80;;;;;;5072487;28;20270;-86
2022/06/23 03:35:42;;;;;;;4.77;4.37;;;11.70;91.60;;;;;;5076029;28;20159;-86
2022/06/23 03:41:39;;;;;;;4.93;4.53;;;11.70;91.00;;;;;;5076824;28;20417;-86
2022/06/23 03:44:24;;;;;;;6.33;4.60;;;11.80;91.00;;;;;;5076918;28;20148;-86
2022/06/23 03:46:58;;;;;;;5.63;4.97;;;11.80;90.90;;;;;;5076742;28;20156;-86
2022/06/23 03:49:36;;;;;;;4.87;4.47;;;11.90;91.00;;;;;;5075226;28;20216;-86
2022/06/23 03:52:05;;;;;;;6.23;5.50;;;12.00;90.90;;;;;;5076483;28;20687;-86
2022/06/23 03:54:55;;;;;;;5.90;5.30;;;12.10;90.90;;;;;;5076436;28;20213;-86
2022/06/23 03:57:29;;;;;;;7.73;6.47;;;12.30;91.10;;;;;;5076288;28;20246;-87
2022/06/23 04:00:13;;;;;;;8.77;7.23;;;12.30;91.10;;;;;;5076239;28;20192;-87
2022/06/23 04:02:45;;;;;;;10.17;8.33;;;12.40;91.20;;;;;;5075978;28;20194;-87
2022/06/23 04:05:25;;;;;;;10.30;9.23;;;12.40;91.20;;;;;;5074942;28;20548;-87
2022/06/23 04:07:51;;;;;;;12.00;10.00;;;12.50;91.30;;;;;;5076017;28;20259;-87
2022/06/23 04:10:35;;;;;;;13.33;9.30;;;12.60;91.40;;;;;;5076056;28;20222;-87
2022/06/23 04:13:07;;;;;;;10.67;9.30;;;12.70;91.40;;;;;;5075935;28;20190;-88
2022/06/23 04:15:40;;;;;;;11.03;10.03;;;12.80;91.40;;;;;;5076242;28;20613;-86
2022/06/23 04:18:12;;;;;;;13.53;11.17;;;12.80;91.40;;;;;;5076482;28;20174;-87
2022/06/23 04:20:40;;;;;;;14.63;11.50;;;12.90;91.40;;;;;;5075843;28;20202;-86
2022/06/23 04:23:21;;;;;;;21.80;13.17;;;12.90;91.50;;;;;;5075987;28;20560;-87
2022/06/23 04:25:56;;;;;;;19.80;13.60;;;13.00;91.60;;;;;;5076155;28;20162;-87
2022/06/23 04:28:25;;;;;;;21.23;13.30;;;13.00;91.70;;;;;;5074645;28;20163;-88
2022/06/23 04:30:53;;;;;;;23.93;13.87;;;13.00;91.90;;;;;;5075704;28;20199;-88
2022/06/23 04:33:22;;;;;;;24.63;15.30;;;13.10;92.10;;;;;;5075647;28;20649;-87
2022/06/23 04:36:00;;;;;;;19.50;13.93;;;13.20;92.30;;;;;;5075831;28;20172;-87
2022/06/23 04:38:36;;;;;;;30.07;15.83;;;13.40;92.60;;;;;;5075702;28;20187;-88
2022/06/23 04:41:04;;;;;;;19.07;14.63;;;13.50;92.80;;;;;;5075787;28;20187;-88
2022/06/23 04:43:39;;;;;;;23.93;14.53;;;13.70;92.90;;;;;;5075701;28;20195;-87
2022/06/23 04:46:17;;;;;;;20.47;15.57;;;13.80;93.00;;;;;;5075210;28;20156;-87
2022/06/23 04:48:49;;;;;;;20.80;14.73;;;13.90;93.00;;;;;;5075688;28;20155;-87
2022/06/23 04:51:30;;;;;;;23.47;15.63;;;13.90;93.10;;;;;;5075437;28;20191;-87
2022/06/23 04:54:14;;;;;;;24.73;15.37;;;14.00;93.10;;;;;;5075652;28;20635;-87
2022/06/23 04:56:49;;;;;;;26.60;15.23;;;14.10;93.20;;;;;;5075040;28;20668;-88
2022/06/23 04:59:39;;;;;;;25.77;15.90;;;14.30;93.30;;;;;;5075415;28;20167;-87
2022/06/23 05:02:34;;;;;;;25.33;16.63;;;14.40;93.40;;;;;;5075261;28;20187;-87
2022/06/23 05:04:59;;;;;;;20.27;14.97;;;14.70;93.40;;;;;;5075567;28;20211;-88
2022/06/23 05:07:25;;;;;;;19.37;15.50;;;14.70;93.30;;;;;;5075841;28;20191;-88
2022/06/23 05:09:55;;;;;;;20.73;13.60;;;14.80;93.20;;;;;;5074517;28;20578;-88
2022/06/23 05:12:33;;;;;;;19.40;13.87;;;14.80;93.10;;;;;;5075588;28;20626;-87
2022/06/23 05:15:24;;;;;;;20.10;13.43;;;14.80;93.00;;;;;;5074116;28;20178;-87
2022/06/23 05:17:54;;;;;;;21.47;13.97;;;15.00;93.00;;;;;;5075654;28;20163;-89
2022/06/23 05:20:46;;;;;;;21.93;12.50;;;15.10;93.00;;;;;;5076397;28;20195;-87
2022/06/23 05:23:17;;;;;;;18.00;12.50;;;15.20;92.90;;;;;;5074388;28;20597;-87
2022/06/23 05:25:46;;;;;;;17.17;12.93;;;15.30;92.80;;;;;;5074573;28;20175;-86
2022/06/23 05:28:25;;;;;;;16.70;11.97;;;15.30;92.60;;;;;;5074500;28;20164;-86
2022/06/23 05:30:57;;;;;;;15.20;12.23;;;15.50;92.50;;;;;;5074706;28;20194;-86
2022/06/23 05:33:30;;;;;;;13.37;10.93;;;15.60;92.30;;;;;;5074800;28;20222;-86
2022/06/23 05:36:03;;;;;;;13.97;11.60;;;15.70;92.10;;;;;;5074445;28;20174;-86
2022/06/23 05:38:50;;;;;;;15.95;11.57;;;15.80;91.70;;;;;;5073049;28;20224;-86
2022/06/23 05:41:34;;;;;;;19.17;11.70;;;16.00;91.40;;;;;;5074077;28;20226;-86
2022/06/23 05:44:04;;;;;;;11.50;10.25;;;16.10;91.10;;;;;;5074452;28;20167;-86
2022/06/23 05:46:32;;;;;;;18.90;11.38;;;16.20;90.60;;;;;;5074452;28;20164;-86
2022/06/23 05:49:18;;;;;;;17.45;10.88;;;16.30;90.30;;;;;;5074140;28;20163;-86
2022/06/23 05:51:49;;;;;;;15.60;10.00;;;16.40;90.00;;;;;;5074071;28;20194;-85
2022/06/23 05:54:32;;;;;;;12.63;9.90;;;16.40;89.20;;;;;;5072891;28;20164;-86
2022/06/23 05:57:10;;;;;;;15.30;9.93;;;16.60;88.90;;;;;;5073379;28;20187;-86
2022/06/23 06:00:01;;;;;;;12.68;9.52;;;16.80;88.80;;;;;;5074117;28;20668;-86
2022/06/23 06:02:37;;;;;;;11.48;9.10;;;16.90;88.40;;;;;;5073823;28;20191;-86
2022/06/23 06:05:03;;;;;;;12.50;8.85;;;17.10;88.20;;;;;;5073794;28;20238;-86
2022/06/23 06:07:38;;;;;;;17.27;8.40;;;17.20;87.50;;;;;;5073757;28;20601;-87
2022/06/23 06:10:06;;;;;;;13.00;8.13;;;17.30;87.60;;;;;;5074002;28;20614;-86
2022/06/23 06:12:36;;;;;;;14.63;8.77;;;17.50;86.90;;;;;;5073589;28;20167;-86
2022/06/23 06:15:27;;;;;;;10.45;7.57;;;17.60;86.40;;;;;;5073629;28;20179;-86
2022/06/23 06:18:06;;;;;;;10.55;8.25;;;17.70;85.40;;;;;;5073483;28;20711;-86
2022/06/23 06:20:31;;;;;;;12.05;7.32;;;17.80;85.20;;;;;;5073464;28;20672;-86
2022/06/23 06:23:17;;;;;;;14.30;7.93;;;18.00;84.80;;;;;;5073831;28;20198;-86
2022/06/23 06:25:47;;;;;;;11.00;7.50;;;18.00;84.20;;;;;;5073565;28;20152;-85
2022/06/23 06:28:30;;;;;;;14.60;6.93;;;18.10;83.40;;;;;;5073829;28;20170;-86
2022/06/23 06:31:24;;;;;;;12.32;6.75;;;18.20;83.50;;;;;;5073417;28;20669;-86
2022/06/23 06:34:13;;;;;;;9.35;6.70;;;18.50;83.20;;;;;;5072828;28;20197;-86
2022/06/23 06:36:42;;;;;;;8.55;6.07;;;18.60;82.00;;;;;;5073716;28;20197;-86
2022/06/23 06:39:11;;;;;;;11.18;6.53;;;18.70;82.00;;;;;;5073330;28;20171;-86
2022/06/23 06:41:39;;;;;;;8.80;6.32;;;18.80;81.90;;;;;;5073090;28;20199;-86
2022/06/23 06:44:05;;;;;;;10.23;6.25;;;19.00;80.70;;;;;;5073238;28;20210;-86
2022/06/23 06:46:31;;;;;;;10.48;5.70;;;19.10;80.90;;;;;;5073296;28;20167;-86
2022/06/23 06:48:59;;;;;;;11.05;5.82;;;19.20;80.50;;;;;;5073165;28;20167;-86
2022/06/23 06:51:27;;;;;;;6.47;5.68;;;19.30;80.00;;;;;;5073130;28;20562;-86
2022/06/23 06:54:03;;;;;;;12.48;5.75;;;19.50;79.40;;;;;;5073328;28;20205;-86
2022/06/23 06:56:40;;;;;;;11.60;5.03;;;19.60;79.50;;;;;;5073062;28;20190;-85
2022/06/23 06:59:14;;;;;;;9.90;5.30;;;19.70;78.50;;;;;;5073123;28;20152;-86
2022/06/23 07:01:42;;;;;;;10.05;5.43;;;19.80;76.80;;;;;;5072852;28;20218;-86
2022/06/23 07:04:23;;;;;;;10.70;5.30;;;19.90;76.40;;;;;;5073061;28;20246;-86
2022/06/23 07:06:56;;;;;;;15.30;6.07;;;19.90;76.20;;;;;;5071847;28;20540;-86
2022/06/23 07:09:37;;;;;;;9.75;5.38;;;19.70;76.50;;;;;;5074622;28;20614;-86
2022/06/23 07:12:03;;;;;;;8.98;4.88;;;19.60;77.70;;;;;;5076918;28;20167;-87
2022/06/23 07:14:37;;;;;;;5.80;4.32;;;19.80;75.90;;;;;;5077511;28;20168;-87
2022/06/23 07:17:12;;;;;;;12.30;4.80;;;20.10;74.50;;;;;;5077892;28;20239;-87
2022/06/23 07:20:04;;;;;;;7.95;4.97;;;20.20;74.30;;;;;;5077255;28;20156;-87
2022/06/23 07:22:36;;;;;;;10.63;4.82;;;20.30;73.70;;;;;;5076733;28;20294;-87
2022/06/23 07:25:05;;;;;;;7.78;4.47;;;20.40;73.20;;;;;;5077359;28;20164;-87
2022/06/23 07:27:46;;;;;;;7.60;4.28;;;20.30;74.70;;;;;;5076944;28;20175;-86
2022/06/23 07:30:24;;;;;;;10.38;4.45;;;20.50;73.20;;;;;;5075526;28;20688;-87
2022/06/23 07:32:58;;;;;;;12.80;5.03;;;20.70;73.00;;;;;;5076913;28;20167;-86
2022/06/23 07:35:36;;;;;;;7.35;5.10;;;20.50;73.50;;;;;;5076761;28;20165;-86
2022/06/23 07:38:15;;;;;;;7.03;4.55;;;20.30;74.70;;;;;;5075818;28;20549;-87
2022/06/23 07:41:02;;;;;;;8.93;4.68;;;20.50;75.50;;;;;;5076819;28;20198;-86
2022/06/23 07:43:36;;;;;;;7.32;4.68;;;20.50;73.60;;;;;;5076822;28;20159;-86
2022/06/23 07:46:02;;;;;;;7.78;4.38;;;20.50;74.40;;;;;;5076549;28;20194;-86
2022/06/23 07:48:33;;;;;;;7.68;4.35;;;20.40;74.20;;;;;;5076515;28;20213;-86
2022/06/23 07:51:05;;;;;;;9.43;4.25;;;20.40;73.60;;;;;;5075530;28;20196;-86
2022/06/23 07:53:35;;;;;;;8.73;5.18;;;20.80;73.50;;;;;;5076578;28;20503;-87
2022/06/23 07:56:03;;;;;;;11.60;4.35;;;21.20;71.80;;;;;;5076368;28;20538;-85
2022/06/23 07:58:31;;;;;;;7.78;4.63;;;21.30;71.20;;;;;;5076600;28;20160;-86
2022/06/23 08:01:20;;;;;;;16.23;4.80;;;21.60;70.90;;;;;;5076296;28;20255;-86
2022/06/23 08:03:59;;;;;;;7.68;4.13;;;21.70;69.50;;;;;;5076404;28;20210;-86
2022/06/23 08:06:26;;;;;;;9.10;4.28;;;21.80;69.10;;;;;;5076381;28;20214;-86
2022/06/23 08:08:57;;;;;;;13.32;4.40;;;21.90;68.10;;;;;;5076033;28;20191;-86
2022/06/23 08:14:33;;;;;;;7.07;3.92;;;22.00;68.40;;;;;;5076513;28;20293;-86
2022/06/23 08:17:01;;;;;;;10.32;4.13;;;22.20;66.40;;;;;;5076288;28;20625;-86
2022/06/23 08:19:30;;;;;;;8.93;4.22;;;22.30;65.90;;;;;;5075711;28;20163;-86
2022/06/23 08:22:03;;;;;;;8.02;3.65;;;22.40;66.30;;;;;;5074156;28;20286;-86
2022/06/23 08:24:29;;;;;;;5.28;3.50;;;22.50;66.70;;;;;;5075985;28;20187;-86
2022/06/23 08:27:03;;;;;;;6.18;3.63;;;22.60;65.00;;;;;;5076010;28;20172;-86
2022/06/23 08:29:34;;;;;;;9.70;3.30;;;22.80;64.90;;;;;;5075519;28;20242;-86
2022/06/23 08:32:00;;;;;;;8.52;3.17;;;22.80;64.90;;;;;;5076342;28;20155;-86
2022/06/23 08:34:29;;;;;;;7.30;3.53;;;22.90;64.30;;;;;;5074356;28;20179;-86
2022/06/23 08:37:03;;;;;;;8.65;3.80;;;23.00;63.80;;;;;;5075384;28;20519;-86
2022/06/23 08:39:41;;;;;;;8.57;3.38;;;23.00;63.80;;;;;;5075283;28;20163;-86
2022/06/23 08:42:19;;;;;;;7.63;3.55;;;23.30;64.80;;;;;;5075694;28;20183;-86
2022/06/23 08:45:06;;;;;;;10.68;3.22;;;23.50;62.50;;;;;;5074010;28;20170;-86
2022/06/23 08:47:45;;;;;;;12.00;3.60;;;23.60;62.20;;;;;;5075476;28;20179;-85
2022/06/23 08:50:21;;;;;;;7.38;3.00;;;23.60;61.00;;;;;;5075557;28;20684;-85
2022/06/23 08:52:57;;;;;;;8.82;4.15;;;23.70;61.00;;;;;;5075313;28;20235;-86
2022/06/23 08:55:35;;;;;;;11.38;3.67;;;23.80;61.00;;;;;;5075310;28;20159;-86
2022/06/23 08:58:19;;;;;;;9.32;3.80;;;24.00;61.20;;;;;;5075891;28;20191;-86
2022/06/23 09:00:56;;;;;;;7.45;3.50;;;23.90;58.40;;;;;;5075005;28;20195;-86
2022/06/23 09:03:56;;;;;;;7.35;3.55;;;23.90;60.50;;;;;;5075382;28;20187;-85
2022/06/23 09:06:24;;;;;;;7.43;3.65;;;23.90;60.20;;;;;;5074911;28;20179;-86
2022/06/23 09:09:14;;;;;;;12.18;4.22;;;24.10;59.70;;;;;;5075297;28;20251;-86
2022/06/23 09:12:16;;;;;;;5.70;3.42;;;23.90;57.20;;;;;;5074938;28;20285;-85
2022/06/23 09:15:00;;;;;;;10.35;4.03;;;24.10;59.60;;;;;;5074175;28;20671;-86
2022/06/23 09:17:44;;;;;;;10.45;3.80;;;24.20;57.50;;;;;;5074936;28;20174;-86
2022/06/23 09:20:44;;;;;;;6.35;3.45;;;24.20;57.70;;;;;;5074823;28;20244;-86
2022/06/23 09:23:28;;;;;;;6.18;3.55;;;24.50;59.80;;;;;;5072809;28;20795;-86
2022/06/23 09:26:23;;;;;;;7.78;3.42;;;24.60;58.10;;;;;;5075059;28;20191;-86
2022/06/23 09:29:02;;;;;;;5.88;3.10;;;24.50;56.50;;;;;;5074729;28;20152;-85
2022/06/23 09:31:42;;;;;;;5.30;3.15;;;24.80;57.70;;;;;;5072796;28;20234;-85
2022/06/23 09:34:43;;;;;;;8.77;3.58;;;25.10;57.00;;;;;;5074526;28;20213;-86
2022/06/23 09:37:30;;;;;;;5.32;3.13;;;25.20;53.30;;;;;;5074106;28;20198;-86
2022/06/23 09:40:20;;;;;;;7.50;2.97;;;25.20;54.40;;;;;;5074265;28;20270;-86
2022/06/23 09:43:36;;;;;;;9.30;3.30;;;25.30;52.80;;;;;;5074632;28;20234;-86
2022/06/23 09:46:15;;;;;;;6.18;3.40;;;25.50;55.10;;;;;;5073223;28;20649;-86
2022/06/23 09:49:06;;;;;;;7.63;3.05;;;25.50;53.30;;;;;;5074644;28;20170;-87
2022/06/23 09:51:57;;;;;;;9.30;3.50;;;25.60;52.80;;;;;;5074241;28;20202;-85
2022/06/23 09:55:07;;;;;;;9.18;2.90;;;25.50;51.50;;;;;;5073028;28;20266;-85
2022/06/23 09:57:51;;;;;;;5.10;3.40;;;25.50;52.80;;;;;;5073514;28;20207;-86
2022/06/23 10:00:42;;;;;;;8.45;3.85;;;25.80;50.40;;;;;;5074215;28;20245;-85
2022/06/23 10:03:34;;;;;;;6.97;3.20;;;26.20;49.70;;;;;;5073669;28;20211;-86
2022/06/23 10:06:14;;;;;;;6.63;3.60;;;26.20;49.00;;;;;;5074024;28;20167;-87
2022/06/23 10:08:56;;;;;;;5.95;2.97;;;25.90;48.40;;;;;;5074073;28;20159;-85
2022/06/23 10:11:37;;;;;;;9.65;3.92;;;26.30;50.70;;;;;;5073814;28;20284;-86
2022/06/23 10:14:30;;;;;;;7.47;3.28;;;26.40;47.80;;;;;;5074228;28;20243;-85
2022/06/23 10:17:05;;;;;;;4.97;2.88;;;26.40;49.80;;;;;;5073673;28;20171;-86
2022/06/23 10:19:55;;;;;;;9.63;3.30;;;26.50;48.10;;;;;;5073575;28;20164;-85
2022/06/23 10:22:26;;;;;;;7.97;2.70;;;26.50;47.60;;;;;;5073954;28;20672;-86
2022/06/23 10:25:23;;;;;;;6.07;2.80;;;26.70;48.00;;;;;;5073732;28;20176;-86
2022/06/23 10:28:13;;;;;;;8.20;3.70;;;26.90;46.50;;;;;;5074324;28;20155;-87
2022/06/23 10:30:53;;;;;;;11.90;4.22;;;26.90;47.90;;;;;;5073952;28;20269;-86
2022/06/23 10:33:36;;;;;;;6.50;3.08;;;26.70;47.40;;;;;;5073741;28;20152;-85
2022/06/23 10:36:18;;;;;;;6.50;3.03;;;26.70;45.80;;;;;;5074261;28;20578;-85
2022/06/23 10:39:03;;;;;;;7.97;3.10;;;26.80;46.10;;;;;;5073833;28;20159;-86
2022/06/23 10:42:10;;;;;;;7.85;2.70;;;26.80;44.80;;;;;;5073451;28;20198;-86
2022/06/23 10:44:39;;;;;;;5.80;2.97;;;27.00;44.90;;;;;;5073216;28;20171;-85
2022/06/23 10:47:32;;;;;;;5.95;2.88;;;26.90;44.60;;;;;;5072176;28;20175;-85
2022/06/23 10:50:12;;;;;;;9.00;3.58;;;26.90;45.20;;;;;;5074169;28;20187;-85
2022/06/23 10:53:21;;;;;;;3.95;2.35;;;27.20;46.30;;;;;;5072651;28;20584;-85
2022/06/23 10:56:16;;;;;;;8.50;2.75;;;27.40;39.90;;;;;;5073630;28;20602;-85
2022/06/23 10:59:00;;;;;;;11.02;2.80;;;27.40;40.00;;;;;;5072761;28;20180;-85
2022/06/23 11:02:07;;;;;;;5.03;2.17;;;27.30;42.70;;;;;;5073739;28;20191;-85
2022/06/23 11:04:48;;;;;;;8.20;2.53;;;27.60;40.90;;;;;;5072392;28;20240;-85
2022/06/23 11:07:26;;;;;;;6.43;2.88;;;27.70;41.10;;;;;;5073988;28;20162;-85
2022/06/23 11:10:19;;;;;;;8.52;2.58;;;27.90;40.50;;;;;;5073607;28;20191;-85
2022/06/23 11:13:06;;;;;;;6.00;2.33;;;27.70;39.40;;;;;;5074080;28;20677;-86
2022/06/23 11:16:19;;;;;;;7.78;2.65;;;27.80;42.20;;;;;;5072547;28;20177;-86
2022/06/23 11:19:05;;;;;;;5.65;2.28;;;27.70;40.40;;;;;;5071884;28;20175;-85
2022/06/23 11:21:46;;;;;;;11.57;2.38;;;27.70;41.30;;;;;;5073371;28;20207;-86
2022/06/23 11:24:24;;;;;;;5.50;2.30;;;27.80;39.90;;;;;;5073683;28;20212;-85
2022/06/23 11:27:07;;;;;;;4.72;2.35;;;27.90;39.40;;;;;;5073776;28;20167;-85
2022/06/23 11:29:48;;;;;;;6.60;2.25;;;28.00;41.00;;;;;;5073566;28;20148;-86
2022/06/23 11:32:37;;;;;;;7.30;2.50;;;28.20;40.20;;;;;;5073540;28;20159;-86
2022/06/23 11:35:33;;;;;;;5.63;2.05;;;28.50;41.60;;;;;;5072132;28;20182;-85
2022/06/23 11:38:07;;;;;;;5.03;1.95;;;28.30;41.00;;;;;;5073846;28;20706;-85
2022/06/23 11:40:42;;;;;;;7.32;1.77;;;28.90;41.60;;;;;;5073467;28;20202;-85
2022/06/23 11:43:14;;;;;;;5.93;1.90;;;28.80;39.10;;;;;;5073863;28;20182;-85
2022/06/23 11:46:01;;;;;;;10.55;3.30;;;28.80;36.20;;;;;;5073188;28;20716;-85
2022/06/23 11:48:59;;;;;;;6.45;2.33;;;28.70;37.70;;;;;;5073565;28;20160;-85
2022/06/23 11:51:33;;;;;;;3.10;1.98;;;28.90;38.80;;;;;;5072110;28;20200;-85
2022/06/23 11:54:34;;;;;;;6.97;2.30;;;29.20;37.40;;;;;;5073262;28;20165;-85
2022/06/23 11:57:12;;;;;;;4.20;2.08;;;29.00;37.20;;;;;;5076861;28;20536;-85
2022/06/23 11:59:59;;;;;;;4.63;2.15;;;28.90;39.10;;;;;;5077003;28;20171;-85
2022/06/23 12:02:24;;;;;;;12.68;2.15;;;28.80;40.00;;;;;;5077088;28;20187;-85
2022/06/23 12:05:08;;;;;;;3.67;2.33;;;28.70;38.00;;;;;;5076795;28;20190;-85
2022/06/23 12:07:46;;;;;;;4.15;2.20;;;28.70;38.80;;;;;;5077320;28;20160;-85
2022/06/23 12:10:22;;;;;;;5.97;2.08;;;28.80;37.50;;;;;;5076840;28;20188;-84
2022/06/23 12:12:51;;;;;;;6.15;2.42;;;28.50;36.30;;;;;;5076698;28;20173;-85
2022/06/23 12:15:22;;;;;;;7.03;2.40;;;28.50;38.90;;;;;;5076762;28;20187;-85
2022/06/23 12:17:53;;;;;;;8.02;2.58;;;28.70;40.30;;;;;;5076936;28;20167;-85
2022/06/23 12:20:33;;;;;;;7.40;2.13;;;28.90;38.70;;;;;;5076628;28;20194;-86
2022/06/23 12:23:32;;;;;;;6.60;2.63;;;28.90;39.50;;;;;;5076873;28;20270;-85
2022/06/23 12:26:11;;;;;;;4.32;2.15;;;28.80;39.20;;;;;;5076588;28;20212;-85
2022/06/23 12:29:05;;;;;;;4.35;2.40;;;28.90;40.70;;;;;;5076674;28;20557;-86
2022/06/23 12:31:45;;;;;;;7.07;2.30;;;29.20;40.60;;;;;;5076089;28;20206;-85
2022/06/23 12:34:34;;;;;;;6.43;2.10;;;29.50;39.00;;;;;;5076255;28;20575;-85
2022/06/23 12:37:15;;;;;;;11.52;2.13;;;29.20;38.00;;;;;;5076355;28;20550;-86
2022/06/23 12:39:59;;;;;;;4.90;2.53;;;29.20;37.80;;;;;;5075106;28;20167;-85
2022/06/23 12:42:35;;;;;;;6.65;2.80;;;29.10;41.40;;;;;;5076957;28;20187;-85
2022/06/23 12:45:45;;;;;;;7.00;2.97;;;29.10;41.10;;;;;;5076376;28;20170;-84
2022/06/23 12:48:36;;;;;;;4.35;2.40;;;29.30;40.50;;;;;;5075724;28;20717;-84
2022/06/23 12:51:26;;;;;;;9.65;2.40;;;29.60;37.20;;;;;;5076445;28;20195;-84
2022/06/23 12:54:11;;;;;;;5.00;2.70;;;29.20;40.60;;;;;;5076385;28;20183;-84
2022/06/23 12:56:51;;;;;;;9.98;2.67;;;29.30;41.60;;;;;;5076273;28;20183;-84
2022/06/23 12:59:28;;;;;;;4.63;2.75;;;29.50;40.00;;;;;;5076553;28;20156;-85
2022/06/23 13:02:04;;;;;;;6.30;2.63;;;29.50;39.20;;;;;;5075976;28;20668;-85
2022/06/23 13:04:54;;;;;;;9.98;2.90;;;29.30;39.90;;;;;;5076178;28;20182;-85
2022/06/23 13:07:40;;;;;;;3.28;2.50;;;29.50;40.70;;;;;;5076048;28;20152;-85
2022/06/23 13:10:36;;;;;;;7.85;2.38;;;29.60;40.60;;;;;;5075859;28;20195;-85
2022/06/23 13:13:09;;;;;;;4.15;2.03;;;29.50;39.30;;;;;;5076027;28;20163;-85
2022/06/23 13:15:59;;;;;;;6.20;2.70;;;29.60;38.60;;;;;;5075845;28;20637;-85
2022/06/23 13:18:34;;;;;;;8.45;2.83;;;29.40;40.00;;;;;;5075679;28;20151;-84
2022/06/23 13:21:28;;;;;;;8.40;2.72;;;29.40;38.20;;;;;;5075475;28;20187;-85
2022/06/23 13:24:04;;;;;;;5.80;2.50;;;29.50;40.80;;;;;;5075810;28;20175;-84
2022/06/23 13:26:36;;;;;;;6.47;2.65;;;29.90;40.30;;;;;;5075554;28;20572;-85
2022/06/23 13:29:16;;;;;;;6.60;2.53;;;30.20;38.90;;;;;;5075544;28;20160;-85
2022/06/23 13:32:06;;;;;;;8.05;2.15;;;30.20;39.00;;;;;;5075484;28;20283;-85
2022/06/23 13:34:40;;;;;;;4.38;2.50;;;30.00;37.70;;;;;;5075596;28;20615;-85
2022/06/23 13:37:12;;;;;;;6.45;2.50;;;29.90;38.80;;;;;;5074307;28;20171;-84
2022/06/23 13:39:44;;;;;;;6.50;2.13;;;29.80;42.30;;;;;;5074140;28;20174;-84
2022/06/23 13:42:17;;;;;;;5.55;2.10;;;29.60;39.40;;;;;;5075378;28;20203;-85
2022/06/23 13:44:53;;;;;;;6.22;2.50;;;29.60;39.80;;;;;;5075201;28;20182;-84
2022/06/23 13:47:24;;;;;;;5.28;2.10;;;29.60;38.40;;;;;;5075599;28;20159;-85
2022/06/23 13:50:07;;;;;;;3.50;2.58;;;29.50;40.60;;;;;;5075263;28;20184;-84
2022/06/23 13:52:51;;;;;;;6.57;2.60;;;29.50;39.70;;;;;;5074913;28;20210;-85
2022/06/23 13:55:27;;;;;;;8.82;2.60;;;29.50;39.90;;;;;;5074785;28;20160;-84